CheckWX is a tool to help pilots better visualize weather data.  It is not intended as a substitute for an official pre-flight weather briefing.

20:42:25 UTC

SPJR TAF
Mayor General FAP Armando Revoredo Iglesias Airport
Cajamarca, Peru
SPJR 251700Z 2518/2618 15007KT 9999 FEW030 SCT045 TX24/2519Z TN05/2611Z TEMPO 2520/2523 SCT025 BKN045

Jun-25@
18:00 UTC

Jun-25 @ 18:00 UTC

Jun-26@
18:00 UTC

Jun-26 @ 18:00 UTC

SPJR 251700Z 2518/2618 15007KT 9999 FEW030 SCT045 TX24/2519Z TN05/2611Z
Wind
  • 150° at 7 KTS
Cloud Levels
  • Few at 3,000' AGL
  • Scattered at 4,500' AGL

Jun-25@
20:00 UTC

Jun-25 @ 20:00 UTC

Jun-25@
23:00 UTC

Jun-25 @ 23:00 UTC

TEMPO 2520/2523 SCT025 BKN045

Temporary

Temporary Changes expected for less than half the time period

Cloud Levels
  • Scattered at 2,500' AGL
  • Broken at 4,500' AGL